Airfield :
LOGIN :

Register | Disclaimer

   EN    FR    IT 

 










Legend :    VFR   Marginal VFR   IFR   Intensive IFR   Very Intensive IFR
Visi :
Ceiling :
>= 8 km
>= 3000ft
5 to 8 km
1000 to 3000 ft
1500m to 5 km
500 to 1000 ft
800 to 1500m
200 to 500 ft
< 800m
< 200 ft
Symbols :   Thunderstorms  Fog  Heavy snow  Heavy precipitations  Wind > 20 kt
SIGMETs :     Misc.  Thunderstorms  Icing  Turbulence  Mountain Waves  Volcanic Ashes






- Airport Elevation : 93 ft
- IATA code : HDF


EDAH - Heringsdorf

CURRENT METAR :
  • 181750Z AUTO 05008KT 9999 // FEW087/// BKN100/// OVC130/// 18/13 Q1013

EXPIRED METARs :
  • 181720Z AUTO 05009KT 9999 // FEW100/// BKN170/// 18/13 Q1013
  • 181650Z 05009KT CAVOK 18/13 Q1013
  • 181620Z 05009KT CAVOK 18/14 Q1014
  • 181550Z 04008KT 010V070 CAVOK 19/14 Q1014
  • 181520Z 03008KT 010V070 CAVOK 20/14 Q1014
  • 181450Z 05008KT 010V080 CAVOK 21/15 Q1015
  • 181420Z 05008KT 020V080 9999 FEW036 21/15 Q1015
  • 181350Z 06009KT 020V080 CAVOK 21/15 Q1015

TAF TAF EDAH
Valid from the 18 at 18:00 until the 19 at 03:00 UTC


181700Z 1818/1903 06007KT 6000 BKN030
PROB40
TEMPO 1818/1822 SHRA FEW009CB BKN013
TEMPO 1822/1902 4000 RA BKN007
BECMG 1823/1901 BKN013



MET'MAP, your aeronautical weather chart ! - Copyright ORBIFLY December 2007 - Disclaimer

ORBIFLY MET'MAP TEAM :

Programming & Development : Alexandra Zaïnal
Original concept : Baudouin d'Aumeries
Technical & hardware support : Manuel Goepfert
Assistance : Marc-Olivier Méhu




SOURCES & CREDITS :

   NOAA